sensor_id;sensor_type;location;lat;lon;timestamp;P1;durP1;ratioP1;P2;durP2;ratioP2
59854;SDS011;45732;52.850;6.896;2023-07-31T00:00:33;7.82;;;3.13;;
59854;SDS011;45732;52.850;6.896;2023-07-31T00:02:59;4.93;;;2.42;;
59854;SDS011;45732;52.850;6.896;2023-07-31T00:05:24;6.57;;;3.00;;
59854;SDS011;45732;52.850;6.896;2023-07-31T00:07:50;6.20;;;3.08;;
59854;SDS011;45732;52.850;6.896;2023-07-31T00:10:16;6.95;;;2.70;;
59854;SDS011;45732;52.850;6.896;2023-07-31T00:12:42;6.88;;;3.20;;
59854;SDS011;45732;52.850;6.896;2023-07-31T00:15:10;7.00;;;2.70;;
59854;SDS011;45732;52.850;6.896;2023-07-31T00:17:36;5.50;;;2.55;;
59854;SDS011;45732;52.850;6.896;2023-07-31T00:20:02;6.18;;;2.80;;
59854;SDS011;45732;52.850;6.896;2023-07-31T00:22:28;6.75;;;2.85;;
59854;SDS011;45732;52.850;6.896;2023-07-31T00:24:54;7.18;;;2.80;;
59854;SDS011;45732;52.850;6.896;2023-07-31T00:27:20;5.88;;;2.70;;
59854;SDS011;45732;52.850;6.896;2023-07-31T00:29:46;5.22;;;2.60;;
59854;SDS011;45732;52.850;6.896;2023-07-31T00:32:12;6.70;;;2.65;;
59854;SDS011;45732;52.850;6.896;2023-07-31T00:34:37;4.88;;;2.42;;
59854;SDS011;45732;52.850;6.896;2023-07-31T00:37:03;5.70;;;2.42;;
59854;SDS011;45732;52.850;6.896;2023-07-31T00:39:30;6.88;;;2.80;;
59854;SDS011;45732;52.850;6.896;2023-07-31T00:41:56;6.30;;;2.97;;
59854;SDS011;45732;52.850;6.896;2023-07-31T00:44:22;5.25;;;2.63;;
59854;SDS011;45732;52.850;6.896;2023-07-31T00:46:48;5.70;;;2.90;;
59854;SDS011;45732;52.850;6.896;2023-07-31T00:49:14;5.03;;;2.60;;
59854;SDS011;45732;52.850;6.896;2023-07-31T00:51:41;4.47;;;2.60;;
59854;SDS011;45732;52.850;6.896;2023-07-31T00:54:06;5.88;;;2.70;;
59854;SDS011;45732;52.850;6.896;2023-07-31T00:56:32;4.90;;;2.72;;
59854;SDS011;45732;52.850;6.896;2023-07-31T00:58:59;4.55;;;2.38;;
59854;SDS011;45732;52.850;6.896;2023-07-31T01:01:24;5.50;;;2.70;;
59854;SDS011;45732;52.850;6.896;2023-07-31T01:03:50;7.03;;;2.60;;
59854;SDS011;45732;52.850;6.896;2023-07-31T01:06:27;5.53;;;2.88;;
59854;SDS011;45732;52.850;6.896;2023-07-31T01:09:32;5.10;;;2.78;;
59854;SDS011;45732;52.850;6.896;2023-07-31T01:12:11;4.47;;;2.50;;
59854;SDS011;45732;52.850;6.896;2023-07-31T01:14:39;4.65;;;2.45;;
59854;SDS011;45732;52.850;6.896;2023-07-31T01:17:05;5.05;;;2.60;;
59854;SDS011;45732;52.850;6.896;2023-07-31T01:19:31;6.32;;;2.35;;
59854;SDS011;45732;52.850;6.896;2023-07-31T01:22:00;5.68;;;2.72;;
59854;SDS011;45732;52.850;6.896;2023-07-31T01:27:34;6.13;;;2.63;;
59854;SDS011;45732;52.850;6.896;2023-07-31T01:30:08;6.10;;;2.10;;
59854;SDS011;45732;52.850;6.896;2023-07-31T01:32:50;4.88;;;2.20;;
59854;SDS011;45732;52.850;6.896;2023-07-31T01:35:18;6.15;;;1.90;;
59854;SDS011;45732;52.850;6.896;2023-07-31T01:37:44;3.35;;;1.98;;
59854;SDS011;45732;52.850;6.896;2023-07-31T01:40:11;4.20;;;2.13;;
59854;SDS011;45732;52.850;6.896;2023-07-31T01:42:36;3.50;;;1.80;;
59854;SDS011;45732;52.850;6.896;2023-07-31T01:45:02;3.78;;;1.75;;
59854;SDS011;45732;52.850;6.896;2023-07-31T01:47:28;3.83;;;1.75;;
59854;SDS011;45732;52.850;6.896;2023-07-31T01:49:54;4.75;;;1.90;;
59854;SDS011;45732;52.850;6.896;2023-07-31T01:52:20;4.10;;;1.80;;
59854;SDS011;45732;52.850;6.896;2023-07-31T01:54:46;3.72;;;1.70;;
59854;SDS011;45732;52.850;6.896;2023-07-31T01:57:11;2.97;;;1.77;;
59854;SDS011;45732;52.850;6.896;2023-07-31T01:59:37;3.47;;;1.50;;
59854;SDS011;45732;52.850;6.896;2023-07-31T02:02:03;3.58;;;1.75;;
59854;SDS011;45732;52.850;6.896;2023-07-31T02:04:29;2.83;;;1.52;;
59854;SDS011;45732;52.850;6.896;2023-07-31T02:06:54;4.50;;;1.75;;
59854;SDS011;45732;52.850;6.896;2023-07-31T02:09:20;2.65;;;1.60;;
59854;SDS011;45732;52.850;6.896;2023-07-31T02:11:46;3.30;;;1.52;;
59854;SDS011;45732;52.850;6.896;2023-07-31T02:14:11;2.35;;;1.30;;
59854;SDS011;45732;52.850;6.896;2023-07-31T02:16:37;4.15;;;1.70;;
59854;SDS011;45732;52.850;6.896;2023-07-31T02:19:03;3.45;;;1.60;;
59854;SDS011;45732;52.850;6.896;2023-07-31T02:21:29;2.97;;;1.30;;
59854;SDS011;45732;52.850;6.896;2023-07-31T02:23:54;3.05;;;1.50;;
59854;SDS011;45732;52.850;6.896;2023-07-31T02:26:20;4.15;;;1.30;;
59854;SDS011;45732;52.850;6.896;2023-07-31T02:28:46;4.00;;;1.50;;
59854;SDS011;45732;52.850;6.896;2023-07-31T02:31:11;3.42;;;1.50;;
59854;SDS011;45732;52.850;6.896;2023-07-31T02:33:37;3.08;;;1.70;;
59854;SDS011;45732;52.850;6.896;2023-07-31T02:36:03;3.88;;;1.40;;
59854;SDS011;45732;52.850;6.896;2023-07-31T02:38:29;10.48;;;2.00;;
59854;SDS011;45732;52.850;6.896;2023-07-31T02:40:54;2.50;;;1.40;;
59854;SDS011;45732;52.850;6.896;2023-07-31T02:43:20;3.92;;;1.50;;
59854;SDS011;45732;52.850;6.896;2023-07-31T02:45:50;2.70;;;1.48;;
59854;SDS011;45732;52.850;6.896;2023-07-31T02:48:16;2.95;;;1.20;;
59854;SDS011;45732;52.850;6.896;2023-07-31T02:50:42;2.83;;;1.50;;
59854;SDS011;45732;52.850;6.896;2023-07-31T02:53:08;2.72;;;1.50;;
59854;SDS011;45732;52.850;6.896;2023-07-31T02:55:33;2.33;;;1.50;;
59854;SDS011;45732;52.850;6.896;2023-07-31T02:57:59;2.00;;;1.30;;
59854;SDS011;45732;52.850;6.896;2023-07-31T03:00:25;3.42;;;1.77;;
59854;SDS011;45732;52.850;6.896;2023-07-31T03:02:51;2.30;;;1.60;;
59854;SDS011;45732;52.850;6.896;2023-07-31T03:05:16;2.85;;;1.55;;
59854;SDS011;45732;52.850;6.896;2023-07-31T03:07:42;3.40;;;1.70;;
59854;SDS011;45732;52.850;6.896;2023-07-31T03:10:08;3.47;;;1.60;;
59854;SDS011;45732;52.850;6.896;2023-07-31T03:12:34;4.45;;;1.70;;
59854;SDS011;45732;52.850;6.896;2023-07-31T03:14:59;3.80;;;1.92;;
59854;SDS011;45732;52.850;6.896;2023-07-31T03:17:25;3.58;;;1.88;;
59854;SDS011;45732;52.850;6.896;2023-07-31T03:19:51;4.55;;;2.03;;
59854;SDS011;45732;52.850;6.896;2023-07-31T03:22:16;4.18;;;1.90;;
59854;SDS011;45732;52.850;6.896;2023-07-31T03:24:42;3.10;;;2.00;;
59854;SDS011;45732;52.850;6.896;2023-07-31T03:27:08;2.97;;;1.90;;
59854;SDS011;45732;52.850;6.896;2023-07-31T03:29:34;4.53;;;2.00;;
59854;SDS011;45732;52.850;6.896;2023-07-31T03:31:59;3.67;;;2.30;;
59854;SDS011;45732;52.850;6.896;2023-07-31T03:34:26;3.03;;;1.98;;
59854;SDS011;45732;52.850;6.896;2023-07-31T03:36:51;5.07;;;2.30;;
59854;SDS011;45732;52.850;6.896;2023-07-31T03:39:18;4.20;;;2.40;;
59854;SDS011;45732;52.850;6.896;2023-07-31T03:41:43;5.03;;;2.28;;
59854;SDS011;45732;52.850;6.896;2023-07-31T03:44:09;6.07;;;2.70;;
59854;SDS011;45732;52.850;6.896;2023-07-31T03:46:35;5.95;;;2.47;;
59854;SDS011;45732;52.850;6.896;2023-07-31T03:49:01;5.22;;;2.70;;
59854;SDS011;45732;52.850;6.896;2023-07-31T03:51:27;3.28;;;2.00;;
59854;SDS011;45732;52.850;6.896;2023-07-31T03:53:52;3.55;;;1.90;;
59854;SDS011;45732;52.850;6.896;2023-07-31T03:56:18;3.47;;;2.20;;
59854;SDS011;45732;52.850;6.896;2023-07-31T03:58:44;3.67;;;2.00;;
59854;SDS011;45732;52.850;6.896;2023-07-31T04:01:10;2.58;;;1.42;;
59854;SDS011;45732;52.850;6.896;2023-07-31T04:03:35;3.30;;;1.52;;
59854;SDS011;45732;52.850;6.896;2023-07-31T04:06:01;4.97;;;1.60;;
59854;SDS011;45732;52.850;6.896;2023-07-31T04:08:27;2.05;;;1.40;;
59854;SDS011;45732;52.850;6.896;2023-07-31T04:10:53;2.95;;;1.60;;
59854;SDS011;45732;52.850;6.896;2023-07-31T04:13:18;3.67;;;1.70;;
59854;SDS011;45732;52.850;6.896;2023-07-31T04:15:50;3.28;;;1.80;;
59854;SDS011;45732;52.850;6.896;2023-07-31T04:18:16;4.28;;;1.90;;
59854;SDS011;45732;52.850;6.896;2023-07-31T04:20:42;3.20;;;1.83;;
59854;SDS011;45732;52.850;6.896;2023-07-31T04:23:08;4.28;;;1.95;;
59854;SDS011;45732;52.850;6.896;2023-07-31T04:25:33;5.40;;;2.20;;
59854;SDS011;45732;52.850;6.896;2023-07-31T04:28:00;4.40;;;1.75;;
59854;SDS011;45732;52.850;6.896;2023-07-31T04:30:26;3.22;;;1.80;;
59854;SDS011;45732;52.850;6.896;2023-07-31T04:32:51;3.53;;;1.88;;
59854;SDS011;45732;52.850;6.896;2023-07-31T04:35:17;5.78;;;1.60;;
59854;SDS011;45732;52.850;6.896;2023-07-31T04:37:43;2.55;;;1.50;;
59854;SDS011;45732;52.850;6.896;2023-07-31T04:40:11;5.25;;;1.58;;
59854;SDS011;45732;52.850;6.896;2023-07-31T04:42:37;2.70;;;1.40;;
59854;SDS011;45732;52.850;6.896;2023-07-31T04:45:02;3.83;;;1.38;;
59854;SDS011;45732;52.850;6.896;2023-07-31T04:47:28;6.35;;;1.90;;
59854;SDS011;45732;52.850;6.896;2023-07-31T04:49:54;5.15;;;1.70;;
59854;SDS011;45732;52.850;6.896;2023-07-31T04:52:20;3.63;;;1.45;;
59854;SDS011;45732;52.850;6.896;2023-07-31T04:54:46;4.63;;;1.55;;
59854;SDS011;45732;52.850;6.896;2023-07-31T04:57:11;3.38;;;1.70;;
59854;SDS011;45732;52.850;6.896;2023-07-31T04:59:37;4.68;;;1.92;;
59854;SDS011;45732;52.850;6.896;2023-07-31T05:02:03;4.10;;;1.70;;
59854;SDS011;45732;52.850;6.896;2023-07-31T05:04:29;4.55;;;1.90;;
59854;SDS011;45732;52.850;6.896;2023-07-31T05:06:54;5.82;;;2.00;;
59854;SDS011;45732;52.850;6.896;2023-07-31T05:09:20;5.53;;;2.10;;
59854;SDS011;45732;52.850;6.896;2023-07-31T05:11:47;5.50;;;1.90;;
59854;SDS011;45732;52.850;6.896;2023-07-31T05:14:13;7.45;;;2.25;;
59854;SDS011;45732;52.850;6.896;2023-07-31T05:16:39;6.68;;;2.47;;
59854;SDS011;45732;52.850;6.896;2023-07-31T05:19:05;7.10;;;2.67;;
59854;SDS011;45732;52.850;6.896;2023-07-31T05:21:30;7.78;;;2.90;;
59854;SDS011;45732;52.850;6.896;2023-07-31T05:23:56;10.77;;;3.53;;
59854;SDS011;45732;52.850;6.896;2023-07-31T05:26:22;12.13;;;4.60;;
59854;SDS011;45732;52.850;6.896;2023-07-31T05:28:47;13.52;;;4.68;;
59854;SDS011;45732;52.850;6.896;2023-07-31T05:31:13;14.80;;;5.07;;
59854;SDS011;45732;52.850;6.896;2023-07-31T05:33:39;15.23;;;5.50;;
59854;SDS011;45732;52.850;6.896;2023-07-31T05:36:04;17.40;;;6.88;;
59854;SDS011;45732;52.850;6.896;2023-07-31T05:38:30;17.77;;;6.93;;
59854;SDS011;45732;52.850;6.896;2023-07-31T05:40:56;20.70;;;7.38;;
59854;SDS011;45732;52.850;6.896;2023-07-31T05:43:22;20.52;;;7.32;;
59854;SDS011;45732;52.850;6.896;2023-07-31T05:45:47;18.67;;;7.75;;
59854;SDS011;45732;52.850;6.896;2023-07-31T05:48:13;23.63;;;8.30;;
59854;SDS011;45732;52.850;6.896;2023-07-31T05:50:39;25.92;;;7.88;;
59854;SDS011;45732;52.850;6.896;2023-07-31T05:53:05;20.02;;;7.60;;
59854;SDS011;45732;52.850;6.896;2023-07-31T05:55:31;24.42;;;8.77;;
59854;SDS011;45732;52.850;6.896;2023-07-31T05:57:57;25.85;;;8.77;;
59854;SDS011;45732;52.850;6.896;2023-07-31T06:00:23;25.70;;;9.55;;
59854;SDS011;45732;52.850;6.896;2023-07-31T06:02:48;26.58;;;9.20;;
59854;SDS011;45732;52.850;6.896;2023-07-31T06:05:14;22.83;;;9.48;;
59854;SDS011;45732;52.850;6.896;2023-07-31T06:07:40;25.88;;;9.73;;
59854;SDS011;45732;52.850;6.896;2023-07-31T06:10:06;29.15;;;10.57;;
59854;SDS011;45732;52.850;6.896;2023-07-31T06:12:33;31.58;;;11.00;;
59854;SDS011;45732;52.850;6.896;2023-07-31T06:14:59;27.80;;;10.13;;
59854;SDS011;45732;52.850;6.896;2023-07-31T06:17:25;26.10;;;10.77;;
59854;SDS011;45732;52.850;6.896;2023-07-31T06:19:51;33.10;;;10.68;;
59854;SDS011;45732;52.850;6.896;2023-07-31T06:22:17;29.27;;;10.73;;
59854;SDS011;45732;52.850;6.896;2023-07-31T06:24:44;29.63;;;10.70;;
59854;SDS011;45732;52.850;6.896;2023-07-31T06:27:10;26.50;;;10.80;;
59854;SDS011;45732;52.850;6.896;2023-07-31T06:29:36;31.17;;;11.50;;
59854;SDS011;45732;52.850;6.896;2023-07-31T06:32:02;32.65;;;11.73;;
59854;SDS011;45732;52.850;6.896;2023-07-31T06:34:28;30.40;;;12.60;;
59854;SDS011;45732;52.850;6.896;2023-07-31T06:36:55;30.67;;;10.93;;
59854;SDS011;45732;52.850;6.896;2023-07-31T06:39:21;26.83;;;12.02;;
59854;SDS011;45732;52.850;6.896;2023-07-31T06:41:47;27.42;;;11.32;;
59854;SDS011;45732;52.850;6.896;2023-07-31T06:44:13;26.63;;;11.00;;
59854;SDS011;45732;52.850;6.896;2023-07-31T06:46:38;23.65;;;10.55;;
59854;SDS011;45732;52.850;6.896;2023-07-31T06:49:04;30.27;;;11.52;;
59854;SDS011;45732;52.850;6.896;2023-07-31T06:51:30;26.30;;;10.77;;
59854;SDS011;45732;52.850;6.896;2023-07-31T06:53:57;26.63;;;11.68;;
59854;SDS011;45732;52.850;6.896;2023-07-31T06:56:23;22.65;;;11.40;;
59854;SDS011;45732;52.850;6.896;2023-07-31T06:58:49;29.08;;;12.13;;
59854;SDS011;45732;52.850;6.896;2023-07-31T07:01:14;28.08;;;11.77;;
59854;SDS011;45732;52.850;6.896;2023-07-31T07:03:40;30.55;;;11.63;;
59854;SDS011;45732;52.850;6.896;2023-07-31T07:06:06;26.33;;;10.95;;
59854;SDS011;45732;52.850;6.896;2023-07-31T07:08:32;26.83;;;11.95;;
59854;SDS011;45732;52.850;6.896;2023-07-31T07:10:58;26.98;;;11.95;;
59854;SDS011;45732;52.850;6.896;2023-07-31T07:13:23;25.38;;;11.35;;
59854;SDS011;45732;52.850;6.896;2023-07-31T07:15:49;27.63;;;11.85;;
59854;SDS011;45732;52.850;6.896;2023-07-31T07:18:16;21.80;;;10.27;;
59854;SDS011;45732;52.850;6.896;2023-07-31T07:20:51;26.65;;;11.18;;
59854;SDS011;45732;52.850;6.896;2023-07-31T07:23:18;24.75;;;10.02;;
59854;SDS011;45732;52.850;6.896;2023-07-31T07:25:45;23.80;;;9.63;;
59854;SDS011;45732;52.850;6.896;2023-07-31T07:28:11;22.88;;;9.57;;
59854;SDS011;45732;52.850;6.896;2023-07-31T07:30:37;19.85;;;8.43;;
59854;SDS011;45732;52.850;6.896;2023-07-31T07:33:03;15.63;;;7.40;;
59854;SDS011;45732;52.850;6.896;2023-07-31T07:35:29;15.52;;;7.20;;
59854;SDS011;45732;52.850;6.896;2023-07-31T07:37:55;15.82;;;7.25;;
59854;SDS011;45732;52.850;6.896;2023-07-31T07:40:21;15.90;;;7.32;;
59854;SDS011;45732;52.850;6.896;2023-07-31T07:42:47;18.15;;;7.22;;
59854;SDS011;45732;52.850;6.896;2023-07-31T07:45:13;15.98;;;6.63;;
59854;SDS011;45732;52.850;6.896;2023-07-31T07:47:40;13.93;;;6.32;;
59854;SDS011;45732;52.850;6.896;2023-07-31T07:50:06;13.02;;;6.40;;
59854;SDS011;45732;52.850;6.896;2023-07-31T07:52:32;16.08;;;6.82;;
59854;SDS011;45732;52.850;6.896;2023-07-31T07:54:58;14.68;;;6.65;;
59854;SDS011;45732;52.850;6.896;2023-07-31T07:57:25;14.18;;;6.68;;
59854;SDS011;45732;52.850;6.896;2023-07-31T07:59:51;12.63;;;6.13;;
59854;SDS011;45732;52.850;6.896;2023-07-31T08:02:17;13.27;;;6.35;;
59854;SDS011;45732;52.850;6.896;2023-07-31T08:04:43;17.15;;;6.68;;
59854;SDS011;45732;52.850;6.896;2023-07-31T08:07:12;12.90;;;6.18;;
59854;SDS011;45732;52.850;6.896;2023-07-31T08:09:38;14.60;;;5.93;;
59854;SDS011;45732;52.850;6.896;2023-07-31T08:12:05;10.90;;;5.93;;
59854;SDS011;45732;52.850;6.896;2023-07-31T08:14:31;14.45;;;6.80;;
59854;SDS011;45732;52.850;6.896;2023-07-31T08:16:57;12.10;;;5.75;;
59854;SDS011;45732;52.850;6.896;2023-07-31T08:19:22;12.25;;;6.10;;
59854;SDS011;45732;52.850;6.896;2023-07-31T08:21:48;12.70;;;6.20;;
59854;SDS011;45732;52.850;6.896;2023-07-31T08:24:14;10.88;;;5.55;;
59854;SDS011;45732;52.850;6.896;2023-07-31T08:26:40;11.20;;;5.78;;
59854;SDS011;45732;52.850;6.896;2023-07-31T08:29:05;11.93;;;5.40;;
59854;SDS011;45732;52.850;6.896;2023-07-31T08:31:31;10.80;;;5.78;;
59854;SDS011;45732;52.850;6.896;2023-07-31T08:33:57;8.45;;;4.95;;
59854;SDS011;45732;52.850;6.896;2023-07-31T08:36:23;11.18;;;4.80;;
59854;SDS011;45732;52.850;6.896;2023-07-31T08:38:48;11.20;;;4.88;;
59854;SDS011;45732;52.850;6.896;2023-07-31T08:41:15;9.35;;;4.22;;
59854;SDS011;45732;52.850;6.896;2023-07-31T08:43:47;8.73;;;4.78;;
59854;SDS011;45732;52.850;6.896;2023-07-31T08:46:14;9.70;;;4.20;;
59854;SDS011;45732;52.850;6.896;2023-07-31T08:48:41;7.28;;;4.28;;
59854;SDS011;45732;52.850;6.896;2023-07-31T08:51:08;7.80;;;4.18;;
59854;SDS011;45732;52.850;6.896;2023-07-31T08:53:34;9.63;;;4.38;;
59854;SDS011;45732;52.850;6.896;2023-07-31T08:56:00;8.48;;;4.40;;
59854;SDS011;45732;52.850;6.896;2023-07-31T08:58:27;7.75;;;4.05;;
59854;SDS011;45732;52.850;6.896;2023-07-31T09:00:56;8.18;;;3.70;;
59854;SDS011;45732;52.850;6.896;2023-07-31T09:03:23;8.10;;;4.10;;
59854;SDS011;45732;52.850;6.896;2023-07-31T09:05:51;7.25;;;3.65;;
59854;SDS011;45732;52.850;6.896;2023-07-31T09:08:20;7.43;;;3.90;;
59854;SDS011;45732;52.850;6.896;2023-07-31T09:10:46;6.78;;;3.50;;
59854;SDS011;45732;52.850;6.896;2023-07-31T09:13:13;7.53;;;3.05;;
59854;SDS011;45732;52.850;6.896;2023-07-31T09:15:39;5.55;;;3.22;;
59854;SDS011;45732;52.850;6.896;2023-07-31T09:18:08;5.22;;;2.70;;
59854;SDS011;45732;52.850;6.896;2023-07-31T09:20:34;6.47;;;2.90;;
59854;SDS011;45732;52.850;6.896;2023-07-31T09:28:03;5.70;;;2.95;;
59854;SDS011;45732;52.850;6.896;2023-07-31T09:30:30;4.78;;;2.30;;
59854;SDS011;45732;52.850;6.896;2023-07-31T09:33:00;4.90;;;2.10;;
59854;SDS011;45732;52.850;6.896;2023-07-31T09:35:32;3.50;;;1.92;;
59854;SDS011;45732;52.850;6.896;2023-07-31T09:38:03;4.13;;;2.30;;
59854;SDS011;45732;52.850;6.896;2023-07-31T09:40:33;3.90;;;2.10;;
59854;SDS011;45732;52.850;6.896;2023-07-31T09:43:01;3.53;;;1.83;;
59854;SDS011;45732;52.850;6.896;2023-07-31T09:45:36;3.90;;;1.60;;
59854;SDS011;45732;52.850;6.896;2023-07-31T09:48:03;3.28;;;1.60;;
59854;SDS011;45732;52.850;6.896;2023-07-31T09:50:36;3.42;;;1.50;;
59854;SDS011;45732;52.850;6.896;2023-07-31T09:53:04;4.07;;;1.70;;
59854;SDS011;45732;52.850;6.896;2023-07-31T09:55:31;3.05;;;1.40;;
59854;SDS011;45732;52.850;6.896;2023-07-31T09:57:58;3.35;;;1.67;;
59854;SDS011;45732;52.850;6.896;2023-07-31T10:00:24;2.85;;;1.52;;
59854;SDS011;45732;52.850;6.896;2023-07-31T10:02:52;3.38;;;1.40;;
59854;SDS011;45732;52.850;6.896;2023-07-31T10:05:19;3.25;;;1.40;;
59854;SDS011;45732;52.850;6.896;2023-07-31T10:07:53;2.75;;;1.40;;
59854;SDS011;45732;52.850;6.896;2023-07-31T10:10:21;2.35;;;1.50;;
59854;SDS011;45732;52.850;6.896;2023-07-31T10:12:48;2.40;;;1.52;;
59854;SDS011;45732;52.850;6.896;2023-07-31T10:15:15;2.60;;;1.40;;
59854;SDS011;45732;52.850;6.896;2023-07-31T10:17:41;2.47;;;1.38;;
59854;SDS011;45732;52.850;6.896;2023-07-31T10:20:07;2.30;;;1.27;;
59854;SDS011;45732;52.850;6.896;2023-07-31T10:22:34;3.08;;;1.38;;
59854;SDS011;45732;52.850;6.896;2023-07-31T10:25:00;1.83;;;1.35;;
59854;SDS011;45732;52.850;6.896;2023-07-31T10:27:27;2.45;;;1.50;;
59854;SDS011;45732;52.850;6.896;2023-07-31T10:29:54;2.20;;;1.70;;
59854;SDS011;45732;52.850;6.896;2023-07-31T10:32:21;3.42;;;1.85;;
59854;SDS011;45732;52.850;6.896;2023-07-31T10:34:49;3.15;;;2.08;;
59854;SDS011;45732;52.850;6.896;2023-07-31T10:37:23;2.83;;;1.95;;
59854;SDS011;45732;52.850;6.896;2023-07-31T10:40:03;4.03;;;2.30;;
59854;SDS011;45732;52.850;6.896;2023-07-31T10:45:14;4.10;;;2.50;;
59854;SDS011;45732;52.850;6.896;2023-07-31T10:48:12;3.50;;;2.50;;
59854;SDS011;45732;52.850;6.896;2023-07-31T10:50:46;7.65;;;3.30;;
59854;SDS011;45732;52.850;6.896;2023-07-31T10:53:24;3.25;;;2.22;;
59854;SDS011;45732;52.850;6.896;2023-07-31T10:55:51;5.15;;;2.63;;
59854;SDS011;45732;52.850;6.896;2023-07-31T10:58:20;3.15;;;2.40;;
59854;SDS011;45732;52.850;6.896;2023-07-31T11:00:47;4.45;;;2.80;;
59854;SDS011;45732;52.850;6.896;2023-07-31T11:03:14;4.13;;;2.60;;
59854;SDS011;45732;52.850;6.896;2023-07-31T11:13:34;2.63;;;1.90;;
59854;SDS011;45732;52.850;6.896;2023-07-31T11:18:31;3.33;;;2.28;;
59854;SDS011;45732;52.850;6.896;2023-07-31T11:20:58;3.65;;;2.30;;
59854;SDS011;45732;52.850;6.896;2023-07-31T11:23:23;2.75;;;2.00;;
59854;SDS011;45732;52.850;6.896;2023-07-31T11:25:49;2.13;;;1.65;;
59854;SDS011;45732;52.850;6.896;2023-07-31T11:28:16;2.28;;;1.90;;
59854;SDS011;45732;52.850;6.896;2023-07-31T11:30:43;3.50;;;2.10;;
59854;SDS011;45732;52.850;6.896;2023-07-31T11:33:10;3.42;;;2.20;;
59854;SDS011;45732;52.850;6.896;2023-07-31T11:35:44;3.50;;;2.42;;
59854;SDS011;45732;52.850;6.896;2023-07-31T11:38:20;3.47;;;2.40;;
59854;SDS011;45732;52.850;6.896;2023-07-31T11:40:47;4.32;;;2.92;;
59854;SDS011;45732;52.850;6.896;2023-07-31T11:43:13;5.78;;;2.58;;
59854;SDS011;45732;52.850;6.896;2023-07-31T11:45:46;3.08;;;2.15;;
59854;SDS011;45732;52.850;6.896;2023-07-31T11:48:23;4.75;;;2.55;;
59854;SDS011;45732;52.850;6.896;2023-07-31T11:50:53;3.90;;;2.40;;
59854;SDS011;45732;52.850;6.896;2023-07-31T11:53:44;3.50;;;2.67;;
59854;SDS011;45732;52.850;6.896;2023-07-31T11:56:10;4.13;;;2.45;;
59854;SDS011;45732;52.850;6.896;2023-07-31T11:58:39;3.60;;;2.28;;
59854;SDS011;45732;52.850;6.896;2023-07-31T12:01:05;3.45;;;2.30;;
59854;SDS011;45732;52.850;6.896;2023-07-31T12:03:32;3.58;;;2.40;;
59854;SDS011;45732;52.850;6.896;2023-07-31T12:05:59;6.20;;;2.60;;
59854;SDS011;45732;52.850;6.896;2023-07-31T12:08:25;3.22;;;1.88;;
59854;SDS011;45732;52.850;6.896;2023-07-31T12:10:52;3.60;;;2.00;;
59854;SDS011;45732;52.850;6.896;2023-07-31T12:13:22;2.72;;;2.03;;
59854;SDS011;45732;52.850;6.896;2023-07-31T12:15:53;3.20;;;2.05;;
59854;SDS011;45732;52.850;6.896;2023-07-31T12:18:24;3.80;;;2.10;;
59854;SDS011;45732;52.850;6.896;2023-07-31T12:20:55;3.28;;;1.33;;
59854;SDS011;45732;52.850;6.896;2023-07-31T12:23:24;1.70;;;1.35;;
59854;SDS011;45732;52.850;6.896;2023-07-31T12:26:00;1.83;;;1.25;;
59854;SDS011;45732;52.850;6.896;2023-07-31T12:28:44;2.70;;;1.20;;
59854;SDS011;45732;52.850;6.896;2023-07-31T12:31:12;2.30;;;1.30;;
59854;SDS011;45732;52.850;6.896;2023-07-31T12:33:40;4.75;;;1.55;;
59854;SDS011;45732;52.850;6.896;2023-07-31T12:36:13;3.55;;;1.20;;
59854;SDS011;45732;52.850;6.896;2023-07-31T12:38:43;3.42;;;1.13;;
59854;SDS011;45732;52.850;6.896;2023-07-31T12:41:16;2.40;;;0.93;;
59854;SDS011;45732;52.850;6.896;2023-07-31T12:43:43;1.52;;;0.70;;
59854;SDS011;45732;52.850;6.896;2023-07-31T12:46:10;1.60;;;0.70;;
59854;SDS011;45732;52.850;6.896;2023-07-31T12:48:37;1.70;;;0.77;;
59854;SDS011;45732;52.850;6.896;2023-07-31T12:51:04;1.67;;;0.90;;
59854;SDS011;45732;52.850;6.896;2023-07-31T12:53:31;3.70;;;1.40;;
59854;SDS011;45732;52.850;6.896;2023-07-31T12:55:57;4.22;;;2.03;;
59854;SDS011;45732;52.850;6.896;2023-07-31T12:58:24;3.80;;;1.88;;
59854;SDS011;45732;52.850;6.896;2023-07-31T13:00:50;4.93;;;2.20;;
59854;SDS011;45732;52.850;6.896;2023-07-31T13:03:16;6.40;;;1.98;;
59854;SDS011;45732;52.850;6.896;2023-07-31T13:05:42;6.82;;;2.50;;
59854;SDS011;45732;52.850;6.896;2023-07-31T13:08:08;6.68;;;2.70;;
59854;SDS011;45732;52.850;6.896;2023-07-31T13:10:34;7.45;;;2.90;;
59854;SDS011;45732;52.850;6.896;2023-07-31T13:13:00;8.38;;;3.33;;
59854;SDS011;45732;52.850;6.896;2023-07-31T13:15:25;9.27;;;3.42;;
59854;SDS011;45732;52.850;6.896;2023-07-31T13:17:51;8.57;;;3.20;;
59854;SDS011;45732;52.850;6.896;2023-07-31T13:20:17;8.15;;;3.22;;
59854;SDS011;45732;52.850;6.896;2023-07-31T13:22:43;8.15;;;3.42;;
59854;SDS011;45732;52.850;6.896;2023-07-31T13:25:08;6.70;;;2.80;;
59854;SDS011;45732;52.850;6.896;2023-07-31T13:27:34;9.32;;;2.92;;
59854;SDS011;45732;52.850;6.896;2023-07-31T13:30:00;7.57;;;2.95;;
59854;SDS011;45732;52.850;6.896;2023-07-31T13:32:26;9.82;;;3.60;;
59854;SDS011;45732;52.850;6.896;2023-07-31T13:34:52;6.80;;;3.05;;
59854;SDS011;45732;52.850;6.896;2023-07-31T13:37:18;6.80;;;3.30;;
59854;SDS011;45732;52.850;6.896;2023-07-31T13:39:44;7.63;;;3.28;;
59854;SDS011;45732;52.850;6.896;2023-07-31T13:42:10;5.60;;;2.85;;
59854;SDS011;45732;52.850;6.896;2023-07-31T13:44:37;6.03;;;2.92;;
59854;SDS011;45732;52.850;6.896;2023-07-31T13:47:04;7.40;;;3.00;;
59854;SDS011;45732;52.850;6.896;2023-07-31T13:49:30;7.75;;;2.80;;
59854;SDS011;45732;52.850;6.896;2023-07-31T13:51:56;6.03;;;2.70;;
59854;SDS011;45732;52.850;6.896;2023-07-31T13:54:22;7.32;;;2.85;;
59854;SDS011;45732;52.850;6.896;2023-07-31T13:56:49;7.05;;;2.60;;
59854;SDS011;45732;52.850;6.896;2023-07-31T13:59:15;6.70;;;2.92;;
59854;SDS011;45732;52.850;6.896;2023-07-31T14:01:42;4.50;;;2.55;;
59854;SDS011;45732;52.850;6.896;2023-07-31T14:04:08;6.38;;;2.30;;
59854;SDS011;45732;52.850;6.896;2023-07-31T14:06:34;6.40;;;2.50;;
59854;SDS011;45732;52.850;6.896;2023-07-31T14:09:00;6.63;;;2.45;;
59854;SDS011;45732;52.850;6.896;2023-07-31T14:11:26;6.13;;;2.45;;
59854;SDS011;45732;52.850;6.896;2023-07-31T14:13:51;7.18;;;2.13;;
59854;SDS011;45732;52.850;6.896;2023-07-31T14:16:17;6.20;;;2.22;;
59854;SDS011;45732;52.850;6.896;2023-07-31T14:18:43;8.35;;;2.25;;
59854;SDS011;45732;52.850;6.896;2023-07-31T14:21:11;6.32;;;2.25;;
59854;SDS011;45732;52.850;6.896;2023-07-31T14:23:37;5.55;;;2.10;;
59854;SDS011;45732;52.850;6.896;2023-07-31T14:26:03;5.28;;;2.05;;
59854;SDS011;45732;52.850;6.896;2023-07-31T14:28:28;5.15;;;2.30;;
59854;SDS011;45732;52.850;6.896;2023-07-31T14:30:55;6.70;;;2.20;;
59854;SDS011;45732;52.850;6.896;2023-07-31T14:33:20;7.15;;;2.53;;
59854;SDS011;45732;52.850;6.896;2023-07-31T14:35:46;6.97;;;2.40;;
59854;SDS011;45732;52.850;6.896;2023-07-31T14:38:12;7.22;;;2.38;;
59854;SDS011;45732;52.850;6.896;2023-07-31T14:40:38;5.40;;;2.33;;
59854;SDS011;45732;52.850;6.896;2023-07-31T14:43:04;6.38;;;2.40;;
59854;SDS011;45732;52.850;6.896;2023-07-31T14:45:29;6.38;;;2.40;;
59854;SDS011;45732;52.850;6.896;2023-07-31T14:47:55;6.78;;;2.80;;
59854;SDS011;45732;52.850;6.896;2023-07-31T14:50:21;7.88;;;3.00;;
59854;SDS011;45732;52.850;6.896;2023-07-31T14:52:47;9.43;;;3.33;;
59854;SDS011;45732;52.850;6.896;2023-07-31T14:55:13;8.02;;;2.72;;
59854;SDS011;45732;52.850;6.896;2023-07-31T14:57:39;6.72;;;2.83;;
59854;SDS011;45732;52.850;6.896;2023-07-31T15:00:05;6.95;;;2.80;;
59854;SDS011;45732;52.850;6.896;2023-07-31T15:02:38;7.18;;;3.20;;